sensor_id;sensor_type;location;lat;lon;timestamp;P1;durP1;ratioP1;P2;durP2;ratioP2
15567;SDS011;7885;42.596;23.044;2023-08-21T00:01:37;5.43;;;4.93;;
15567;SDS011;7885;42.596;23.044;2023-08-21T00:04:04;6.10;;;4.93;;
15567;SDS011;7885;42.596;23.044;2023-08-21T00:06:31;6.20;;;5.50;;
15567;SDS011;7885;42.596;23.044;2023-08-21T00:08:59;5.80;;;5.30;;
15567;SDS011;7885;42.596;23.044;2023-08-21T00:11:26;5.67;;;5.20;;
15567;SDS011;7885;42.596;23.044;2023-08-21T00:13:53;6.27;;;5.27;;
15567;SDS011;7885;42.596;23.044;2023-08-21T00:16:20;6.10;;;5.50;;
15567;SDS011;7885;42.596;23.044;2023-08-21T00:18:46;5.40;;;4.90;;
15567;SDS011;7885;42.596;23.044;2023-08-21T00:21:13;6.23;;;5.60;;
15567;SDS011;7885;42.596;23.044;2023-08-21T00:23:40;5.73;;;5.17;;
15567;SDS011;7885;42.596;23.044;2023-08-21T00:26:08;5.67;;;5.00;;
15567;SDS011;7885;42.596;23.044;2023-08-21T00:28:34;5.57;;;5.17;;
15567;SDS011;7885;42.596;23.044;2023-08-21T00:31:01;6.27;;;5.30;;
15567;SDS011;7885;42.596;23.044;2023-08-21T00:33:29;6.93;;;5.80;;
15567;SDS011;7885;42.596;23.044;2023-08-21T00:35:56;5.70;;;5.20;;
15567;SDS011;7885;42.596;23.044;2023-08-21T00:38:23;7.03;;;5.37;;
15567;SDS011;7885;42.596;23.044;2023-08-21T00:40:50;6.90;;;5.30;;
15567;SDS011;7885;42.596;23.044;2023-08-21T00:43:18;6.27;;;5.27;;
15567;SDS011;7885;42.596;23.044;2023-08-21T00:45:45;8.10;;;5.50;;
15567;SDS011;7885;42.596;23.044;2023-08-21T00:48:13;5.50;;;5.00;;
15567;SDS011;7885;42.596;23.044;2023-08-21T00:50:40;6.13;;;5.40;;
15567;SDS011;7885;42.596;23.044;2023-08-21T00:53:08;6.40;;;5.70;;
15567;SDS011;7885;42.596;23.044;2023-08-21T00:55:34;6.30;;;5.50;;
15567;SDS011;7885;42.596;23.044;2023-08-21T00:58:02;6.00;;;5.47;;
15567;SDS011;7885;42.596;23.044;2023-08-21T01:00:31;5.57;;;5.07;;
15567;SDS011;7885;42.596;23.044;2023-08-21T01:02:58;6.10;;;5.27;;
15567;SDS011;7885;42.596;23.044;2023-08-21T01:05:25;5.90;;;5.40;;
15567;SDS011;7885;42.596;23.044;2023-08-21T01:07:53;6.57;;;5.30;;
15567;SDS011;7885;42.596;23.044;2023-08-21T01:10:28;5.87;;;5.20;;
15567;SDS011;7885;42.596;23.044;2023-08-21T01:13:06;7.53;;;5.73;;
15567;SDS011;7885;42.596;23.044;2023-08-21T01:15:39;6.50;;;5.73;;
15567;SDS011;7885;42.596;23.044;2023-08-21T01:18:07;6.30;;;5.70;;
15567;SDS011;7885;42.596;23.044;2023-08-21T01:20:35;6.00;;;5.50;;
15567;SDS011;7885;42.596;23.044;2023-08-21T01:23:03;6.17;;;5.57;;
15567;SDS011;7885;42.596;23.044;2023-08-21T01:25:33;6.47;;;5.83;;
15567;SDS011;7885;42.596;23.044;2023-08-21T01:28:00;5.60;;;5.10;;
15567;SDS011;7885;42.596;23.044;2023-08-21T01:30:27;7.83;;;5.20;;
15567;SDS011;7885;42.596;23.044;2023-08-21T01:32:59;6.53;;;5.90;;
15567;SDS011;7885;42.596;23.044;2023-08-21T01:35:31;6.50;;;5.90;;
15567;SDS011;7885;42.596;23.044;2023-08-21T01:38:00;6.23;;;5.50;;
15567;SDS011;7885;42.596;23.044;2023-08-21T01:40:28;6.90;;;5.83;;
15567;SDS011;7885;42.596;23.044;2023-08-21T01:42:56;6.63;;;5.77;;
15567;SDS011;7885;42.596;23.044;2023-08-21T01:45:23;5.97;;;5.47;;
15567;SDS011;7885;42.596;23.044;2023-08-21T01:47:51;6.07;;;5.57;;
15567;SDS011;7885;42.596;23.044;2023-08-21T01:50:25;8.40;;;6.03;;
15567;SDS011;7885;42.596;23.044;2023-08-21T01:53:02;6.30;;;5.80;;
15567;SDS011;7885;42.596;23.044;2023-08-21T01:55:29;5.83;;;5.33;;
15567;SDS011;7885;42.596;23.044;2023-08-21T01:57:57;7.73;;;5.87;;
15567;SDS011;7885;42.596;23.044;2023-08-21T02:00:24;6.20;;;5.40;;
15567;SDS011;7885;42.596;23.044;2023-08-21T02:02:50;6.33;;;5.73;;
15567;SDS011;7885;42.596;23.044;2023-08-21T02:05:17;6.47;;;5.87;;
15567;SDS011;7885;42.596;23.044;2023-08-21T02:07:47;6.30;;;5.80;;
15567;SDS011;7885;42.596;23.044;2023-08-21T02:10:14;8.13;;;6.30;;
15567;SDS011;7885;42.596;23.044;2023-08-21T02:12:55;6.60;;;6.00;;
15567;SDS011;7885;42.596;23.044;2023-08-21T02:15:23;6.53;;;5.97;;
15567;SDS011;7885;42.596;23.044;2023-08-21T02:17:52;7.63;;;5.90;;
15567;SDS011;7885;42.596;23.044;2023-08-21T02:20:21;6.97;;;6.37;;
15567;SDS011;7885;42.596;23.044;2023-08-21T02:22:48;6.40;;;5.90;;
15567;SDS011;7885;42.596;23.044;2023-08-21T02:25:18;6.60;;;6.03;;
15567;SDS011;7885;42.596;23.044;2023-08-21T02:27:44;7.33;;;6.27;;
15567;SDS011;7885;42.596;23.044;2023-08-21T02:30:11;6.83;;;6.23;;
15567;SDS011;7885;42.596;23.044;2023-08-21T02:32:40;8.33;;;6.07;;
15567;SDS011;7885;42.596;23.044;2023-08-21T02:35:07;6.93;;;6.27;;
15567;SDS011;7885;42.596;23.044;2023-08-21T02:37:34;7.20;;;6.50;;
15567;SDS011;7885;42.596;23.044;2023-08-21T02:40:04;8.33;;;6.47;;
15567;SDS011;7885;42.596;23.044;2023-08-21T02:42:33;7.30;;;6.70;;
15567;SDS011;7885;42.596;23.044;2023-08-21T02:45:00;9.83;;;7.83;;
15567;SDS011;7885;42.596;23.044;2023-08-21T02:47:33;10.50;;;9.30;;
15567;SDS011;7885;42.596;23.044;2023-08-21T02:50:01;12.60;;;10.60;;
15567;SDS011;7885;42.596;23.044;2023-08-21T02:52:28;13.03;;;10.03;;
15567;SDS011;7885;42.596;23.044;2023-08-21T02:54:55;17.27;;;12.90;;
15567;SDS011;7885;42.596;23.044;2023-08-21T02:57:21;15.53;;;11.53;;
15567;SDS011;7885;42.596;23.044;2023-08-21T02:59:49;13.33;;;11.20;;
15567;SDS011;7885;42.596;23.044;2023-08-21T03:02:16;11.97;;;10.03;;
15567;SDS011;7885;42.596;23.044;2023-08-21T03:04:43;11.13;;;9.00;;
15567;SDS011;7885;42.596;23.044;2023-08-21T03:07:11;9.43;;;8.43;;
15567;SDS011;7885;42.596;23.044;2023-08-21T03:09:38;10.97;;;8.93;;
15567;SDS011;7885;42.596;23.044;2023-08-21T03:12:06;8.60;;;7.67;;
15567;SDS011;7885;42.596;23.044;2023-08-21T03:14:34;10.03;;;8.20;;
15567;SDS011;7885;42.596;23.044;2023-08-21T03:17:03;11.50;;;9.70;;
15567;SDS011;7885;42.596;23.044;2023-08-21T03:19:30;12.33;;;10.40;;
15567;SDS011;7885;42.596;23.044;2023-08-21T03:21:56;15.63;;;11.23;;
15567;SDS011;7885;42.596;23.044;2023-08-21T03:24:24;25.23;;;15.73;;
15567;SDS011;7885;42.596;23.044;2023-08-21T03:26:51;27.73;;;19.07;;
15567;SDS011;7885;42.596;23.044;2023-08-21T03:29:18;31.33;;;20.00;;
15567;SDS011;7885;42.596;23.044;2023-08-21T03:31:46;16.47;;;12.10;;
15567;SDS011;7885;42.596;23.044;2023-08-21T03:34:13;8.57;;;7.77;;
15567;SDS011;7885;42.596;23.044;2023-08-21T03:36:39;9.37;;;8.30;;
15567;SDS011;7885;42.596;23.044;2023-08-21T03:39:06;8.83;;;7.87;;
15567;SDS011;7885;42.596;23.044;2023-08-21T03:41:34;10.30;;;7.43;;
15567;SDS011;7885;42.596;23.044;2023-08-21T03:44:01;8.67;;;7.40;;
15567;SDS011;7885;42.596;23.044;2023-08-21T03:46:28;7.93;;;7.23;;
15567;SDS011;7885;42.596;23.044;2023-08-21T03:48:54;9.60;;;7.57;;
15567;SDS011;7885;42.596;23.044;2023-08-21T03:51:21;10.23;;;8.30;;
15567;SDS011;7885;42.596;23.044;2023-08-21T03:53:48;7.97;;;7.17;;
15567;SDS011;7885;42.596;23.044;2023-08-21T03:56:15;9.00;;;8.07;;
15567;SDS011;7885;42.596;23.044;2023-08-21T03:58:43;10.60;;;8.33;;
15567;SDS011;7885;42.596;23.044;2023-08-21T04:01:10;9.70;;;8.13;;
15567;SDS011;7885;42.596;23.044;2023-08-21T04:03:36;8.27;;;7.47;;
15567;SDS011;7885;42.596;23.044;2023-08-21T04:06:03;9.80;;;7.20;;
15567;SDS011;7885;42.596;23.044;2023-08-21T04:08:30;9.07;;;7.87;;
15567;SDS011;7885;42.596;23.044;2023-08-21T04:10:57;7.63;;;6.93;;
15567;SDS011;7885;42.596;23.044;2023-08-21T04:13:26;9.27;;;7.77;;
15567;SDS011;7885;42.596;23.044;2023-08-21T04:15:54;10.53;;;9.43;;
15567;SDS011;7885;42.596;23.044;2023-08-21T04:18:21;9.97;;;8.13;;
15567;SDS011;7885;42.596;23.044;2023-08-21T04:20:48;10.07;;;8.20;;
15567;SDS011;7885;42.596;23.044;2023-08-21T04:23:15;8.93;;;7.97;;
15567;SDS011;7885;42.596;23.044;2023-08-21T04:25:42;8.37;;;7.57;;
15567;SDS011;7885;42.596;23.044;2023-08-21T04:28:09;9.90;;;7.90;;
15567;SDS011;7885;42.596;23.044;2023-08-21T04:30:36;10.90;;;7.87;;
15567;SDS011;7885;42.596;23.044;2023-08-21T04:33:04;9.13;;;8.10;;
15567;SDS011;7885;42.596;23.044;2023-08-21T04:35:35;13.93;;;8.30;;
15567;SDS011;7885;42.596;23.044;2023-08-21T04:38:03;13.67;;;8.07;;
15567;SDS011;7885;42.596;23.044;2023-08-21T04:40:30;11.53;;;8.13;;
15567;SDS011;7885;42.596;23.044;2023-08-21T04:42:57;10.23;;;7.97;;
15567;SDS011;7885;42.596;23.044;2023-08-21T04:45:24;9.07;;;8.27;;
15567;SDS011;7885;42.596;23.044;2023-08-21T04:47:50;15.03;;;8.07;;
15567;SDS011;7885;42.596;23.044;2023-08-21T04:50:19;15.60;;;8.13;;
15567;SDS011;7885;42.596;23.044;2023-08-21T04:52:46;9.60;;;7.93;;
15567;SDS011;7885;42.596;23.044;2023-08-21T04:55:14;9.70;;;7.47;;
15567;SDS011;7885;42.596;23.044;2023-08-21T04:57:41;10.40;;;7.40;;
15567;SDS011;7885;42.596;23.044;2023-08-21T05:00:08;40.47;;;9.73;;
15567;SDS011;7885;42.596;23.044;2023-08-21T05:02:35;36.43;;;9.67;;
15567;SDS011;7885;42.596;23.044;2023-08-21T05:05:02;18.63;;;8.20;;
15567;SDS011;7885;42.596;23.044;2023-08-21T05:07:31;12.93;;;8.50;;
15567;SDS011;7885;42.596;23.044;2023-08-21T05:09:59;15.50;;;7.93;;
15567;SDS011;7885;42.596;23.044;2023-08-21T05:12:26;49.87;;;9.43;;
15567;SDS011;7885;42.596;23.044;2023-08-21T05:14:52;16.67;;;8.53;;
15567;SDS011;7885;42.596;23.044;2023-08-21T05:17:19;11.70;;;8.00;;
15567;SDS011;7885;42.596;23.044;2023-08-21T05:19:46;9.73;;;7.43;;
15567;SDS011;7885;42.596;23.044;2023-08-21T05:22:13;16.67;;;8.30;;
15567;SDS011;7885;42.596;23.044;2023-08-21T05:24:41;10.53;;;8.23;;
15567;SDS011;7885;42.596;23.044;2023-08-21T05:30:35;22.70;;;8.23;;
15567;SDS011;7885;42.596;23.044;2023-08-21T05:33:02;15.73;;;7.97;;
15567;SDS011;7885;42.596;23.044;2023-08-21T05:35:32;10.47;;;8.70;;
15567;SDS011;7885;42.596;23.044;2023-08-21T05:38:01;13.10;;;9.20;;
15567;SDS011;7885;42.596;23.044;2023-08-21T05:40:30;14.57;;;9.00;;
15567;SDS011;7885;42.596;23.044;2023-08-21T05:42:57;13.27;;;8.90;;
15567;SDS011;7885;42.596;23.044;2023-08-21T05:45:26;11.20;;;9.00;;
15567;SDS011;7885;42.596;23.044;2023-08-21T05:47:53;12.53;;;8.53;;
15567;SDS011;7885;42.596;23.044;2023-08-21T05:50:20;12.60;;;7.97;;
15567;SDS011;7885;42.596;23.044;2023-08-21T05:52:47;14.10;;;8.37;;
15567;SDS011;7885;42.596;23.044;2023-08-21T05:55:14;11.03;;;8.03;;
15567;SDS011;7885;42.596;23.044;2023-08-21T05:57:42;14.50;;;7.90;;
15567;SDS011;7885;42.596;23.044;2023-08-21T06:00:09;9.27;;;7.83;;
15567;SDS011;7885;42.596;23.044;2023-08-21T06:02:37;14.10;;;8.20;;
15567;SDS011;7885;42.596;23.044;2023-08-21T06:05:04;10.83;;;7.20;;
15567;SDS011;7885;42.596;23.044;2023-08-21T06:07:32;9.57;;;6.90;;
15567;SDS011;7885;42.596;23.044;2023-08-21T06:09:59;8.70;;;6.97;;
15567;SDS011;7885;42.596;23.044;2023-08-21T06:12:25;8.83;;;6.83;;
15567;SDS011;7885;42.596;23.044;2023-08-21T06:14:54;8.07;;;6.70;;
15567;SDS011;7885;42.596;23.044;2023-08-21T06:17:20;9.17;;;7.20;;
15567;SDS011;7885;42.596;23.044;2023-08-21T06:19:47;9.70;;;6.43;;
15567;SDS011;7885;42.596;23.044;2023-08-21T06:22:14;7.03;;;6.03;;
15567;SDS011;7885;42.596;23.044;2023-08-21T06:24:41;6.87;;;6.07;;
15567;SDS011;7885;42.596;23.044;2023-08-21T06:27:07;7.80;;;6.20;;
15567;SDS011;7885;42.596;23.044;2023-08-21T06:29:34;9.03;;;5.40;;
15567;SDS011;7885;42.596;23.044;2023-08-21T06:32:04;9.10;;;5.40;;
15567;SDS011;7885;42.596;23.044;2023-08-21T06:34:31;7.57;;;5.73;;
15567;SDS011;7885;42.596;23.044;2023-08-21T06:36:57;8.23;;;5.40;;
15567;SDS011;7885;42.596;23.044;2023-08-21T06:39:25;8.67;;;5.60;;
15567;SDS011;7885;42.596;23.044;2023-08-21T06:41:52;7.73;;;5.70;;
15567;SDS011;7885;42.596;23.044;2023-08-21T06:44:20;9.37;;;5.40;;
15567;SDS011;7885;42.596;23.044;2023-08-21T06:46:47;7.65;;;6.03;;
15567;SDS011;7885;42.596;23.044;2023-08-21T06:49:15;10.88;;;6.07;;
15567;SDS011;7885;42.596;23.044;2023-08-21T06:51:43;8.95;;;5.43;;
15567;SDS011;7885;42.596;23.044;2023-08-21T06:54:10;11.00;;;5.70;;
15567;SDS011;7885;42.596;23.044;2023-08-21T06:56:37;7.00;;;5.57;;
15567;SDS011;7885;42.596;23.044;2023-08-21T06:59:03;9.40;;;6.03;;
15567;SDS011;7885;42.596;23.044;2023-08-21T07:01:30;8.30;;;5.60;;
15567;SDS011;7885;42.596;23.044;2023-08-21T07:03:57;6.63;;;5.82;;
15567;SDS011;7885;42.596;23.044;2023-08-21T07:06:26;7.65;;;5.40;;
15567;SDS011;7885;42.596;23.044;2023-08-21T07:08:53;7.28;;;5.70;;
15567;SDS011;7885;42.596;23.044;2023-08-21T07:11:20;8.27;;;5.70;;
15567;SDS011;7885;42.596;23.044;2023-08-21T07:13:47;8.32;;;5.50;;
15567;SDS011;7885;42.596;23.044;2023-08-21T07:16:14;6.82;;;5.70;;
15567;SDS011;7885;42.596;23.044;2023-08-21T07:18:40;6.57;;;5.60;;
15567;SDS011;7885;42.596;23.044;2023-08-21T07:21:07;8.20;;;5.93;;
15567;SDS011;7885;42.596;23.044;2023-08-21T07:23:35;5.72;;;5.22;;
15567;SDS011;7885;42.596;23.044;2023-08-21T07:26:02;5.43;;;4.93;;
15567;SDS011;7885;42.596;23.044;2023-08-21T07:28:32;8.15;;;5.50;;
15567;SDS011;7885;42.596;23.044;2023-08-21T07:30:59;5.45;;;4.95;;
15567;SDS011;7885;42.596;23.044;2023-08-21T07:33:26;6.82;;;5.43;;
15567;SDS011;7885;42.596;23.044;2023-08-21T07:36:00;9.65;;;5.43;;
15567;SDS011;7885;42.596;23.044;2023-08-21T07:38:27;5.30;;;4.90;;
15567;SDS011;7885;42.596;23.044;2023-08-21T07:41:03;6.95;;;5.00;;
15567;SDS011;7885;42.596;23.044;2023-08-21T07:43:30;7.70;;;5.22;;
15567;SDS011;7885;42.596;23.044;2023-08-21T07:45:57;7.35;;;5.35;;
15567;SDS011;7885;42.596;23.044;2023-08-21T07:48:24;6.68;;;5.32;;
15567;SDS011;7885;42.596;23.044;2023-08-21T07:50:51;6.90;;;5.30;;
15567;SDS011;7885;42.596;23.044;2023-08-21T07:53:18;6.03;;;5.43;;
15567;SDS011;7885;42.596;23.044;2023-08-21T07:55:45;6.18;;;5.68;;
15567;SDS011;7885;42.596;23.044;2023-08-21T07:58:13;7.07;;;5.43;;
15567;SDS011;7885;42.596;23.044;2023-08-21T08:00:40;6.53;;;5.05;;
15567;SDS011;7885;42.596;23.044;2023-08-21T08:03:07;5.78;;;5.28;;
15567;SDS011;7885;42.596;23.044;2023-08-21T08:05:34;6.38;;;5.25;;
15567;SDS011;7885;42.596;23.044;2023-08-21T08:08:01;6.07;;;5.15;;
15567;SDS011;7885;42.596;23.044;2023-08-21T08:10:28;9.60;;;6.10;;
15567;SDS011;7885;42.596;23.044;2023-08-21T08:12:55;9.70;;;5.90;;
15567;SDS011;7885;42.596;23.044;2023-08-21T08:15:23;6.45;;;5.30;;
15567;SDS011;7885;42.596;23.044;2023-08-21T08:17:50;8.68;;;5.57;;
15567;SDS011;7885;42.596;23.044;2023-08-21T08:20:17;5.95;;;5.35;;
15567;SDS011;7885;42.596;23.044;2023-08-21T08:22:44;6.07;;;5.47;;
15567;SDS011;7885;42.596;23.044;2023-08-21T08:25:11;7.88;;;5.45;;
15567;SDS011;7885;42.596;23.044;2023-08-21T08:27:39;5.78;;;5.28;;
15567;SDS011;7885;42.596;23.044;2023-08-21T08:30:06;6.28;;;5.10;;
15567;SDS011;7885;42.596;23.044;2023-08-21T08:32:35;6.03;;;5.20;;
15567;SDS011;7885;42.596;23.044;2023-08-21T08:35:01;7.53;;;5.50;;
15567;SDS011;7885;42.596;23.044;2023-08-21T08:37:29;6.00;;;5.25;;
15567;SDS011;7885;42.596;23.044;2023-08-21T08:39:55;6.63;;;4.88;;
15567;SDS011;7885;42.596;23.044;2023-08-21T08:42:22;8.70;;;5.28;;
15567;SDS011;7885;42.596;23.044;2023-08-21T08:44:49;5.50;;;4.97;;
15567;SDS011;7885;42.596;23.044;2023-08-21T08:47:16;6.88;;;5.13;;
15567;SDS011;7885;42.596;23.044;2023-08-21T08:49:47;5.95;;;4.90;;
15567;SDS011;7885;42.596;23.044;2023-08-21T08:52:15;10.60;;;5.53;;
15567;SDS011;7885;42.596;23.044;2023-08-21T08:54:43;7.20;;;5.30;;
15567;SDS011;7885;42.596;23.044;2023-08-21T08:57:10;6.63;;;5.00;;
15567;SDS011;7885;42.596;23.044;2023-08-21T08:59:37;5.55;;;5.03;;
15567;SDS011;7885;42.596;23.044;2023-08-21T09:02:04;6.88;;;4.97;;
15567;SDS011;7885;42.596;23.044;2023-08-21T09:04:31;6.15;;;5.53;;
15567;SDS011;7885;42.596;23.044;2023-08-21T09:07:08;5.90;;;4.93;;
15567;SDS011;7885;42.596;23.044;2023-08-21T09:09:39;8.18;;;4.78;;
15567;SDS011;7885;42.596;23.044;2023-08-21T09:12:09;6.82;;;5.20;;
15567;SDS011;7885;42.596;23.044;2023-08-21T09:14:37;8.82;;;4.85;;
15567;SDS011;7885;42.596;23.044;2023-08-21T09:17:05;5.40;;;4.90;;
15567;SDS011;7885;42.596;23.044;2023-08-21T09:19:32;6.18;;;5.30;;
15567;SDS011;7885;42.596;23.044;2023-08-21T09:21:58;5.45;;;4.88;;
15567;SDS011;7885;42.596;23.044;2023-08-21T09:24:35;7.47;;;5.15;;
15567;SDS011;7885;42.596;23.044;2023-08-21T09:27:01;9.00;;;5.45;;
15567;SDS011;7885;42.596;23.044;2023-08-21T09:29:33;5.90;;;5.25;;
15567;SDS011;7885;42.596;23.044;2023-08-21T09:32:05;6.38;;;5.10;;
15567;SDS011;7885;42.596;23.044;2023-08-21T09:34:33;7.78;;;5.03;;
15567;SDS011;7885;42.596;23.044;2023-08-21T09:37:01;6.05;;;4.70;;
15567;SDS011;7885;42.596;23.044;2023-08-21T09:39:32;9.43;;;5.45;;
15567;SDS011;7885;42.596;23.044;2023-08-21T09:42:03;6.50;;;5.53;;
15567;SDS011;7885;42.596;23.044;2023-08-21T09:44:34;5.38;;;4.90;;
15567;SDS011;7885;42.596;23.044;2023-08-21T09:47:02;5.28;;;4.78;;
15567;SDS011;7885;42.596;23.044;2023-08-21T09:49:28;7.22;;;5.10;;
15567;SDS011;7885;42.596;23.044;2023-08-21T09:51:56;6.97;;;5.13;;
15567;SDS011;7885;42.596;23.044;2023-08-21T09:54:24;5.95;;;5.28;;
15567;SDS011;7885;42.596;23.044;2023-08-21T09:56:52;5.47;;;4.90;;
15567;SDS011;7885;42.596;23.044;2023-08-21T09:59:19;6.07;;;5.47;;
15567;SDS011;7885;42.596;23.044;2023-08-21T10:01:47;5.82;;;5.00;;
15567;SDS011;7885;42.596;23.044;2023-08-21T10:04:16;7.07;;;5.30;;
15567;SDS011;7885;42.596;23.044;2023-08-21T10:06:44;5.72;;;4.80;;
15567;SDS011;7885;42.596;23.044;2023-08-21T10:09:12;6.40;;;5.22;;
15567;SDS011;7885;42.596;23.044;2023-08-21T10:11:40;7.80;;;5.35;;
15567;SDS011;7885;42.596;23.044;2023-08-21T10:14:13;6.07;;;5.50;;
15567;SDS011;7885;42.596;23.044;2023-08-21T10:16:41;6.20;;;5.20;;
15567;SDS011;7885;42.596;23.044;2023-08-21T10:19:08;6.35;;;5.70;;
15567;SDS011;7885;42.596;23.044;2023-08-21T10:21:40;15.57;;;6.18;;
15567;SDS011;7885;42.596;23.044;2023-08-21T10:24:12;6.53;;;5.32;;
15567;SDS011;7885;42.596;23.044;2023-08-21T10:26:51;12.52;;;6.22;;
15567;SDS011;7885;42.596;23.044;2023-08-21T10:29:19;11.48;;;5.57;;
15567;SDS011;7885;42.596;23.044;2023-08-21T10:31:46;8.43;;;5.28;;
15567;SDS011;7885;42.596;23.044;2023-08-21T10:34:30;6.32;;;5.38;;
15567;SDS011;7885;42.596;23.044;2023-08-21T10:37:02;5.30;;;4.82;;
15567;SDS011;7885;42.596;23.044;2023-08-21T10:39:35;6.13;;;5.20;;
15567;SDS011;7885;42.596;23.044;2023-08-21T10:42:04;5.53;;;5.13;;
15567;SDS011;7885;42.596;23.044;2023-08-21T10:44:49;7.72;;;5.55;;
15567;SDS011;7885;42.596;23.044;2023-08-21T10:47:18;6.15;;;5.50;;
15567;SDS011;7885;42.596;23.044;2023-08-21T10:49:46;9.48;;;5.80;;
15567;SDS011;7885;42.596;23.044;2023-08-21T10:52:14;8.02;;;5.53;;
15567;SDS011;7885;42.596;23.044;2023-08-21T10:54:47;9.02;;;5.93;;
15567;SDS011;7885;42.596;23.044;2023-08-21T10:57:15;10.48;;;5.80;;
15567;SDS011;7885;42.596;23.044;2023-08-21T10:59:53;8.68;;;6.05;;
15567;SDS011;7885;42.596;23.044;2023-08-21T11:02:21;7.43;;;5.70;;
15567;SDS011;7885;42.596;23.044;2023-08-21T11:04:49;8.82;;;6.07;;
15567;SDS011;7885;42.596;23.044;2023-08-21T11:07:16;8.20;;;5.95;;
15567;SDS011;7885;42.596;23.044;2023-08-21T11:09:43;9.73;;;5.85;;
15567;SDS011;7885;42.596;23.044;2023-08-21T11:12:10;10.52;;;5.93;;
15567;SDS011;7885;42.596;23.044;2023-08-21T11:14:39;6.53;;;5.95;;
15567;SDS011;7885;42.596;23.044;2023-08-21T11:17:12;10.75;;;8.93;;
15567;SDS011;7885;42.596;23.044;2023-08-21T11:19:40;7.20;;;6.50;;
15567;SDS011;7885;42.596;23.044;2023-08-21T11:22:08;8.95;;;5.90;;
15567;SDS011;7885;42.596;23.044;2023-08-21T11:24:42;8.95;;;6.07;;
15567;SDS011;7885;42.596;23.044;2023-08-21T11:27:11;24.90;;;22.83;;
15567;SDS011;7885;42.596;23.044;2023-08-21T11:29:39;11.88;;;8.18;;
15567;SDS011;7885;42.596;23.044;2023-08-21T11:32:07;9.68;;;8.50;;
15567;SDS011;7885;42.596;23.044;2023-08-21T11:34:36;7.38;;;5.53;;
15567;SDS011;7885;42.596;23.044;2023-08-21T11:37:03;7.13;;;6.43;;
15567;SDS011;7885;42.596;23.044;2023-08-21T11:39:43;8.15;;;5.95;;
15567;SDS011;7885;42.596;23.044;2023-08-21T11:42:11;7.28;;;6.13;;
15567;SDS011;7885;42.596;23.044;2023-08-21T11:44:42;14.95;;;13.55;;
15567;SDS011;7885;42.596;23.044;2023-08-21T11:50:33;8.50;;;6.70;;
15567;SDS011;7885;42.596;23.044;2023-08-21T11:53:00;6.30;;;5.80;;
15567;SDS011;7885;42.596;23.044;2023-08-21T11:55:30;8.80;;;5.50;;
15567;SDS011;7885;42.596;23.044;2023-08-21T11:57:57;6.45;;;5.82;;
15567;SDS011;7885;42.596;23.044;2023-08-21T12:00:26;7.35;;;5.35;;
15567;SDS011;7885;42.596;23.044;2023-08-21T12:02:55;8.60;;;7.63;;
15567;SDS011;7885;42.596;23.044;2023-08-21T12:12:07;8.18;;;5.95;;
15567;SDS011;7885;42.596;23.044;2023-08-21T12:14:34;7.18;;;5.82;;
15567;SDS011;7885;42.596;23.044;2023-08-21T12:17:04;8.05;;;5.32;;
15567;SDS011;7885;42.596;23.044;2023-08-21T12:19:31;7.18;;;5.05;;
15567;SDS011;7885;42.596;23.044;2023-08-21T12:21:57;5.45;;;4.78;;
15567;SDS011;7885;42.596;23.044;2023-08-21T12:24:24;6.35;;;5.00;;
15567;SDS011;7885;42.596;23.044;2023-08-21T12:26:51;6.90;;;5.30;;
15567;SDS011;7885;42.596;23.044;2023-08-21T12:29:19;6.82;;;4.97;;
15567;SDS011;7885;42.596;23.044;2023-08-21T12:31:46;7.32;;;5.25;;
15567;SDS011;7885;42.596;23.044;2023-08-21T12:34:13;6.70;;;5.25;;
15567;SDS011;7885;42.596;23.044;2023-08-21T12:36:40;7.32;;;5.38;;
15567;SDS011;7885;42.596;23.044;2023-08-21T12:39:07;9.52;;;5.57;;
15567;SDS011;7885;42.596;23.044;2023-08-21T12:41:34;5.68;;;5.00;;
15567;SDS011;7885;42.596;23.044;2023-08-21T12:44:01;5.90;;;5.38;;
15567;SDS011;7885;42.596;23.044;2023-08-21T12:53:13;6.40;;;5.47;;
15567;SDS011;7885;42.596;23.044;2023-08-21T12:55:40;5.82;;;5.22;;
15567;SDS011;7885;42.596;23.044;2023-08-21T12:58:07;6.03;;;5.18;;
15567;SDS011;7885;42.596;23.044;2023-08-21T13:00:34;5.80;;;5.30;;
15567;SDS011;7885;42.596;23.044;2023-08-21T13:03:01;6.90;;;5.32;;
15567;SDS011;7885;42.596;23.044;2023-08-21T13:05:28;7.43;;;5.28;;
15567;SDS011;7885;42.596;23.044;2023-08-21T13:07:55;7.78;;;5.75;;
15567;SDS011;7885;42.596;23.044;2023-08-21T13:10:23;8.07;;;5.57;;
15567;SDS011;7885;42.596;23.044;2023-08-21T13:12:49;7.50;;;5.60;;
15567;SDS011;7885;42.596;23.044;2023-08-21T13:15:17;7.00;;;5.22;;
15567;SDS011;7885;42.596;23.044;2023-08-21T13:17:43;6.13;;;5.53;;
15567;SDS011;7885;42.596;23.044;2023-08-21T13:20:10;7.47;;;5.38;;
15567;SDS011;7885;42.596;23.044;2023-08-21T13:22:44;8.07;;;5.43;;
15567;SDS011;7885;42.596;23.044;2023-08-21T13:25:11;7.15;;;5.25;;
15567;SDS011;7885;42.596;23.044;2023-08-21T13:27:39;5.82;;;5.30;;
15567;SDS011;7885;42.596;23.044;2023-08-21T13:30:06;5.97;;;5.47;;
15567;SDS011;7885;42.596;23.044;2023-08-21T13:32:34;7.50;;;5.60;;
15567;SDS011;7885;42.596;23.044;2023-08-21T13:35:01;7.75;;;5.60;;
15567;SDS011;7885;42.596;23.044;2023-08-21T13:37:30;6.30;;;5.43;;
15567;SDS011;7885;42.596;23.044;2023-08-21T13:39:56;6.00;;;5.40;;
15567;SDS011;7885;42.596;23.044;2023-08-21T13:42:25;8.07;;;5.43;;
15567;SDS011;7885;42.596;23.044;2023-08-21T13:44:56;8.63;;;5.30;;
15567;SDS011;7885;42.596;23.044;2023-08-21T13:47:23;12.70;;;5.90;;
15567;SDS011;7885;42.596;23.044;2023-08-21T13:49:50;5.85;;;5.25;;
15567;SDS011;7885;42.596;23.044;2023-08-21T13:52:16;7.03;;;5.18;;
15567;SDS011;7885;42.596;23.044;2023-08-21T13:54:43;5.15;;;4.65;;
15567;SDS011;7885;42.596;23.044;2023-08-21T13:57:10;5.70;;;5.22;;
15567;SDS011;7885;42.596;23.044;2023-08-21T13:59:36;7.68;;;5.22;;
15567;SDS011;7885;42.596;23.044;2023-08-21T14:02:04;7.00;;;5.78;;
15567;SDS011;7885;42.596;23.044;2023-08-21T14:04:32;9.90;;;5.55;;
15567;SDS011;7885;42.596;23.044;2023-08-21T14:06:59;8.73;;;5.40;;
15567;SDS011;7885;42.596;23.044;2023-08-21T14:09:25;10.25;;;5.53;;
15567;SDS011;7885;42.596;23.044;2023-08-21T14:11:52;10.65;;;5.30;;
15567;SDS011;7885;42.596;23.044;2023-08-21T14:17:42;6.28;;;5.47;;
15567;SDS011;7885;42.596;23.044;2023-08-21T14:20:09;7.75;;;5.25;;
15567;SDS011;7885;42.596;23.044;2023-08-21T14:22:36;5.75;;;4.97;;
15567;SDS011;7885;42.596;23.044;2023-08-21T14:25:03;6.45;;;5.13;;
15567;SDS011;7885;42.596;23.044;2023-08-21T14:27:30;9.75;;;5.78;;
15567;SDS011;7885;42.596;23.044;2023-08-21T14:33:20;10.38;;;5.60;;
15567;SDS011;7885;42.596;23.044;2023-08-21T14:35:47;7.57;;;6.05;;
15567;SDS011;7885;42.596;23.044;2023-08-21T14:38:14;6.32;;;5.22;;
15567;SDS011;7885;42.596;23.044;2023-08-21T14:40:41;7.45;;;6.13;;
15567;SDS011;7885;42.596;23.044;2023-08-21T14:43:08;7.05;;;5.63;;
15567;SDS011;7885;42.596;23.044;2023-08-21T14:45:35;6.25;;;5.43;;
15567;SDS011;7885;42.596;23.044;2023-08-21T14:48:01;6.28;;;5.60;;
15567;SDS011;7885;42.596;23.044;2023-08-21T14:50:30;6.47;;;5.97;;
15567;SDS011;7885;42.596;23.044;2023-08-21T14:52:56;7.57;;;6.03;;
15567;SDS011;7885;42.596;23.044;2023-08-21T14:55:23;10.23;;;5.90;;
15567;SDS011;7885;42.596;23.044;2023-08-21T14:57:50;6.35;;;5.63;;
15567;SDS011;7885;42.596;23.044;2023-08-21T15:00:16;6.85;;;6.25;;
15567;SDS011;7885;42.596;23.044;2023-08-21T15:02:43;6.63;;;5.93;;
15567;SDS011;7885;42.596;23.044;2023-08-21T15:05:10;7.03;;;6.38;;
15567;SDS011;7885;42.596;23.044;2023-08-21T15:07:42;8.15;;;6.38;;
15567;SDS011;7885;42.596;23.044;2023-08-21T15:10:09;7.82;;;6.15;;
15567;SDS011;7885;42.596;23.044;2023-08-21T15:12:36;8.23;;;6.65;;
15567;SDS011;7885;42.596;23.044;2023-08-21T15:15:03;9.98;;;6.70;;
15567;SDS011;7885;42.596;23.044;2023-08-21T15:17:31;7.28;;;5.97;;